Time;durP1;ratioP1;P1;durP2;ratioP2;P2;SDS_P1;SDS_P2;PMS_P1;PMS_P2;Temp;Humidity;BMP_temperature;BMP_pressure;BME280_temperature;BME280_humidity;BME280_pressure;Samples;Min_cycle;Max_cycle;Signal;HPM_P1;HPM_P2
2022/03/30 04:05:34;;;;;;;28.83;10.53;;;9.30;99.90;;;;;;4977711;28;20214;-75
2022/03/30 04:08:03;;;;;;;24.13;9.63;;;9.30;99.90;;;;;;4983556;28;21009;-74
2022/03/30 04:10:31;;;;;;;28.00;10.90;;;9.40;99.90;;;;;;4982724;28;20237;-76
2022/03/30 04:12:59;;;;;;;25.00;10.07;;;9.40;99.90;;;;;;4977971;28;20724;-74
2022/03/30 04:15:30;;;;;;;25.93;10.13;;;9.40;99.90;;;;;;4974850;28;20257;-75
2022/03/30 04:17:58;;;;;;;26.57;10.73;;;9.40;99.90;;;;;;4974386;28;20209;-74
2022/03/30 04:20:27;;;;;;;26.03;10.87;;;9.30;99.90;;;;;;4974102;28;20223;-74
2022/03/30 04:22:57;;;;;;;28.57;10.43;;;9.30;99.90;;;;;;4982581;28;20711;-75
2022/03/30 04:25:25;;;;;;;28.50;10.20;;;9.30;99.90;;;;;;4977992;28;20235;-76
2022/03/30 04:27:54;;;;;;;25.77;10.23;;;9.30;99.90;;;;;;4977239;28;20246;-76
2022/03/30 04:30:23;;;;;;;21.60;9.43;;;9.30;99.90;;;;;;4979323;28;20234;-76
2022/03/30 04:32:51;;;;;;;28.07;10.50;;;9.30;99.90;;;;;;4975261;28;20250;-76
2022/03/30 04:35:24;;;;;;;20.83;10.50;;;9.20;99.90;;;;;;4976508;28;20305;-76
2022/03/30 04:37:54;;;;;;;23.83;9.90;;;9.20;99.90;;;;;;4977287;28;20205;-76
2022/03/30 04:40:24;;;;;;;29.43;10.77;;;9.20;99.90;;;;;;4978337;28;20210;-75
2022/03/30 04:42:53;;;;;;;26.80;9.90;;;9.10;99.90;;;;;;4976089;28;20251;-76
2022/03/30 04:45:21;;;;;;;28.53;10.60;;;9.10;99.90;;;;;;4975320;28;20318;-76
2022/03/30 04:47:51;;;;;;;24.47;10.33;;;9.10;99.90;;;;;;4971447;28;20265;-77
2022/03/30 04:50:31;;;;;;;30.80;10.10;;;9.10;99.90;;;;;;4955394;29;20283;-76
2022/03/30 04:52:59;;;;;;;26.87;10.20;;;9.10;99.90;;;;;;4965638;28;20298;-75
2022/03/30 04:55:31;;;;;;;21.07;9.30;;;9.10;99.90;;;;;;4973764;28;20215;-76
2022/03/30 04:57:59;;;;;;;27.43;10.23;;;9.10;99.90;;;;;;4972907;28;20290;-75
2022/03/30 05:00:27;;;;;;;17.40;9.70;;;9.10;99.90;;;;;;4972534;28;20305;-75
2022/03/30 05:02:55;;;;;;;26.20;9.87;;;9.10;99.90;;;;;;4972043;28;20258;-77
2022/03/30 05:05:24;;;;;;;26.47;9.90;;;9.10;99.90;;;;;;4972234;28;20281;-76
2022/03/30 05:07:52;;;;;;;28.70;10.37;;;9.00;99.90;;;;;;4973625;28;20199;-76
2022/03/30 05:10:20;;;;;;;27.70;10.10;;;9.00;99.90;;;;;;4973289;28;20211;-75
2022/03/30 05:12:50;;;;;;;23.43;9.20;;;9.00;99.90;;;;;;4973536;28;20262;-75
2022/03/30 05:15:18;;;;;;;26.57;9.93;;;9.00;99.90;;;;;;4972270;28;20294;-75
2022/03/30 05:17:47;;;;;;;31.10;9.57;;;9.00;99.90;;;;;;4974402;28;20672;-77
2022/03/30 05:20:16;;;;;;;31.30;9.77;;;9.00;99.90;;;;;;4973202;28;20245;-77
2022/03/30 05:22:44;;;;;;;28.83;10.10;;;9.00;99.90;;;;;;4975982;28;20313;-76
2022/03/30 05:25:19;;;;;;;30.50;9.77;;;9.10;99.90;;;;;;4978407;28;20219;-74
2022/03/30 05:27:47;;;;;;;25.53;9.90;;;9.10;99.90;;;;;;4978063;28;20684;-76
2022/03/30 05:30:17;;;;;;;25.90;10.03;;;9.10;99.90;;;;;;4980222;28;20250;-75
2022/03/30 05:32:46;;;;;;;25.10;8.97;;;9.10;99.90;;;;;;4980488;28;20213;-76
2022/03/30 05:35:15;;;;;;;22.00;8.93;;;9.20;99.90;;;;;;4977752;28;20294;-74
2022/03/30 05:37:47;;;;;;;24.77;9.77;;;9.20;99.90;;;;;;4977356;28;20238;-74
2022/03/30 05:40:16;;;;;;;46.60;20.77;;;9.30;99.90;;;;;;4977039;28;20628;-77
2022/03/30 05:42:45;;;;;;;37.47;16.70;;;9.30;99.90;;;;;;4977062;28;20211;-76
2022/03/30 05:45:16;;;;;;;26.10;11.37;;;9.40;99.90;;;;;;4977789;28;20234;-75
2022/03/30 05:47:46;;;;;;;28.83;9.67;;;9.50;99.90;;;;;;4977095;28;20195;-79
2022/03/30 05:50:14;;;;;;;30.03;12.83;;;9.50;99.90;;;;;;4977439;28;20399;-78
2022/03/30 05:52:42;;;;;;;28.27;10.10;;;9.60;99.90;;;;;;4978022;28;20266;-78
2022/03/30 05:55:10;;;;;;;25.27;10.70;;;9.70;99.90;;;;;;4977600;28;20301;-78
2022/03/30 05:57:39;;;;;;;24.67;9.70;;;9.70;99.90;;;;;;4978195;28;20219;-79
2022/03/30 06:00:10;;;;;;;30.00;11.07;;;9.90;99.90;;;;;;4980287;28;20246;-75
2022/03/30 06:02:38;;;;;;;28.23;10.50;;;9.90;99.90;;;;;;4983755;28;20195;-77
2022/03/30 06:05:10;;;;;;;30.57;13.13;;;9.90;99.90;;;;;;4980867;28;20330;-75
2022/03/30 06:07:38;;;;;;;23.33;9.10;;;10.00;99.60;;;;;;4980978;28;20249;-76
2022/03/30 06:10:07;;;;;;;25.50;11.33;;;10.00;99.50;;;;;;4978348;28;20740;-76
2022/03/30 06:12:35;;;;;;;26.23;10.93;;;10.10;98.70;;;;;;4977424;28;20211;-79
2022/03/30 06:15:04;;;;;;;31.80;12.03;;;10.20;98.30;;;;;;4976877;28;20210;-78
2022/03/30 06:17:34;;;;;;;26.57;10.07;;;10.20;98.40;;;;;;4977050;28;20207;-78
2022/03/30 06:20:10;;;;;;;23.60;10.27;;;10.30;98.40;;;;;;4977937;28;20219;-75
2022/03/30 06:22:41;;;;;;;21.17;11.23;;;10.30;98.30;;;;;;4977045;28;20195;-78
2022/03/30 06:25:10;;;;;;;27.40;12.33;;;10.40;98.10;;;;;;4976280;28;20219;-78
2022/03/30 06:27:40;;;;;;;31.93;11.10;;;10.40;98.20;;;;;;4976113;28;20206;-76
2022/03/30 06:30:09;;;;;;;25.10;10.63;;;10.50;97.70;;;;;;4976505;28;20332;-79
2022/03/30 06:32:38;;;;;;;29.10;10.67;;;10.40;98.10;;;;;;4976122;28;20219;-77
2022/03/30 06:35:11;;;;;;;34.93;10.13;;;10.50;98.20;;;;;;4975625;28;20198;-77
2022/03/30 06:37:41;;;;;;;25.17;9.00;;;10.50;98.80;;;;;;4976426;28;20238;-77
